createdAt,value
2023-04-27T00:00:20.113Z,24.46
2023-04-27T00:01:20.174Z,24.46
2023-04-27T00:02:20.364Z,24.42
2023-04-27T00:03:20.403Z,24.47
2023-04-27T00:04:20.517Z,24.46
2023-04-27T00:05:20.407Z,24.46
2023-04-27T00:06:20.424Z,24.46
2023-04-27T00:07:20.431Z,24.46
2023-04-27T00:08:20.471Z,24.46
2023-04-27T00:09:20.545Z,24.47
2023-04-27T00:10:20.712Z,24.46
2023-04-27T00:11:20.610Z,24.42
2023-04-27T00:12:20.679Z,24.46
2023-04-27T00:13:20.728Z,24.46
2023-04-27T00:14:20.749Z,24.47
2023-04-27T00:15:20.782Z,24.47
2023-04-27T00:16:20.865Z,24.44
2023-04-27T00:17:20.909Z,24.44
2023-04-27T00:18:20.922Z,24.44
2023-04-27T00:19:20.972Z,24.42
2023-04-27T00:20:21.028Z,24.47
2023-04-27T00:21:21.094Z,24.44
2023-04-27T00:22:21.117Z,24.46
2023-04-27T00:23:21.209Z,24.44
2023-04-27T00:24:21.208Z,24.46
2023-04-27T00:25:21.261Z,24.44
2023-04-27T00:26:21.292Z,24.44
2023-04-27T00:27:21.358Z,24.46
2023-04-27T00:28:21.391Z,24.44
2023-04-27T00:29:21.433Z,24.46
2023-04-27T00:30:21.471Z,24.46
2023-04-27T00:31:21.566Z,24.42
2023-04-27T00:32:21.617Z,24.46
2023-04-27T00:33:21.600Z,24.42
2023-04-27T00:34:21.650Z,24.44
2023-04-27T00:35:21.712Z,24.41
2023-04-27T00:36:21.738Z,24.41
2023-04-27T00:37:21.798Z,24.44
2023-04-27T00:38:21.842Z,24.41
2023-04-27T00:39:21.889Z,24.41
2023-04-27T00:40:21.951Z,24.41
2023-04-27T00:41:22.005Z,24.44
2023-04-27T00:42:22.028Z,24.41
2023-04-27T00:43:22.077Z,24.41
2023-04-27T00:44:22.132Z,24.42
2023-04-27T00:45:22.168Z,24.42
2023-04-27T00:46:22.274Z,24.42
2023-04-27T00:47:22.299Z,24.41
2023-04-27T00:48:22.325Z,24.42
2023-04-27T00:49:22.357Z,24.42
2023-04-27T00:50:22.447Z,24.41
2023-04-27T00:51:22.502Z,24.41
2023-04-27T00:52:22.529Z,24.44
2023-04-27T00:53:22.576Z,24.40
2023-04-27T00:54:22.620Z,24.41
2023-04-27T00:55:22.612Z,24.41
2023-04-27T00:56:22.590Z,24.40
2023-04-27T00:57:22.576Z,24.40
2023-04-27T00:58:22.557Z,24.41
2023-04-27T00:59:22.538Z,24.41
2023-04-27T01:00:22.537Z,24.40
2023-04-27T01:01:22.564Z,24.40
2023-04-27T01:02:22.538Z,24.41
2023-04-27T01:03:22.559Z,24.40
2023-04-27T01:04:22.626Z,24.41
2023-04-27T01:05:22.511Z,24.41
2023-04-27T01:06:22.542Z,24.42
2023-04-27T01:07:22.611Z,24.40
2023-04-27T01:08:22.641Z,24.40
2023-04-27T01:09:22.708Z,24.38
2023-04-27T01:10:22.745Z,24.40
2023-04-27T01:11:22.797Z,24.40
2023-04-27T01:12:22.813Z,24.38
2023-04-27T01:13:22.847Z,24.40
2023-04-27T01:14:22.859Z,24.38
2023-04-27T01:15:22.893Z,24.38
2023-04-27T01:16:23.001Z,24.38
2023-04-27T01:17:23.055Z,24.38
2023-04-27T01:18:23.064Z,24.37
2023-04-27T01:19:23.105Z,24.38
2023-04-27T01:20:23.181Z,24.38
2023-04-27T01:21:23.231Z,24.37
2023-04-27T01:22:23.294Z,24.38
2023-04-27T01:23:23.344Z,24.38
2023-04-27T01:24:23.415Z,24.37
2023-04-27T01:25:23.419Z,24.38
2023-04-27T01:26:23.458Z,24.38
2023-04-27T01:27:23.515Z,24.38
2023-04-27T01:28:23.560Z,24.37
2023-04-27T01:29:23.606Z,24.37
2023-04-27T01:30:23.662Z,24.38
2023-04-27T01:31:23.743Z,24.37
2023-04-27T01:32:23.766Z,24.40
2023-04-27T01:33:23.795Z,24.37
2023-04-27T01:34:23.847Z,24.37
2023-04-27T01:35:24.811Z,24.35
2023-04-27T01:36:23.948Z,24.38
2023-04-27T01:37:23.988Z,24.38
2023-04-27T01:38:24.059Z,24.37
2023-04-27T01:39:24.091Z,24.38
2023-04-27T01:40:24.135Z,24.37
2023-04-27T01:41:24.202Z,24.38
2023-04-27T01:42:24.232Z,24.34
2023-04-27T01:43:24.304Z,24.34
2023-04-27T01:44:24.339Z,24.34
2023-04-27T01:45:24.408Z,24.35
2023-04-27T01:46:24.470Z,24.37
2023-04-27T01:47:24.556Z,24.35
2023-04-27T01:48:24.552Z,24.38
2023-04-27T01:49:24.638Z,24.37
2023-04-27T01:50:24.668Z,24.37
2023-04-27T01:51:24.725Z,24.35
2023-04-27T01:52:24.774Z,24.37
2023-04-27T01:53:24.804Z,24.35
2023-04-27T01:54:26.799Z,24.35
2023-04-27T01:55:24.802Z,24.35
2023-04-27T01:56:24.832Z,24.35
2023-04-27T01:57:24.790Z,24.35
2023-04-27T01:58:24.746Z,24.34
2023-04-27T01:59:24.737Z,24.37
2023-04-27T02:00:24.714Z,24.35
2023-04-27T02:01:24.741Z,24.37
2023-04-27T02:02:24.824Z,24.37
2023-04-27T02:03:24.789Z,24.37
2023-04-27T02:04:24.841Z,24.35
2023-04-27T02:05:24.661Z,24.35
2023-04-27T02:06:24.618Z,24.34
2023-04-27T02:07:24.620Z,24.37
2023-04-27T02:08:24.605Z,24.37
2023-04-27T02:09:24.573Z,24.34
2023-04-27T02:10:24.558Z,24.37
2023-04-27T02:11:24.549Z,24.34
2023-04-27T02:12:24.523Z,24.35
2023-04-27T02:13:24.502Z,24.32
2023-04-27T02:14:24.496Z,24.34
2023-04-27T02:15:24.474Z,24.31
2023-04-27T02:16:24.515Z,24.32
2023-04-27T02:17:24.511Z,24.34
2023-04-27T02:18:24.419Z,24.31
2023-04-27T02:19:24.404Z,24.32
2023-04-27T02:20:24.404Z,24.31
2023-04-27T02:21:24.373Z,24.32
2023-04-27T02:22:24.369Z,24.34
2023-04-27T02:23:24.367Z,24.35
2023-04-27T02:24:24.333Z,24.34
2023-04-27T02:25:24.325Z,24.34
2023-04-27T02:26:24.307Z,24.32
2023-04-27T02:27:24.284Z,24.34
2023-04-27T02:28:24.262Z,24.32
2023-04-27T02:29:24.314Z,24.32
2023-04-27T02:30:24.386Z,24.32
2023-04-27T02:31:24.476Z,24.32
2023-04-27T02:32:24.495Z,24.31
2023-04-27T02:33:24.527Z,24.34
2023-04-27T02:34:24.613Z,24.32
2023-04-27T02:35:24.672Z,24.31
2023-04-27T02:36:24.723Z,24.31
2023-04-27T02:37:24.772Z,24.31
2023-04-27T02:38:24.850Z,24.31
2023-04-27T02:39:24.906Z,24.31
2023-04-27T02:40:24.986Z,24.30
2023-04-27T02:41:25.014Z,24.31
2023-04-27T02:42:25.078Z,24.30
2023-04-27T02:43:25.123Z,24.28
2023-04-27T02:44:25.173Z,24.32
2023-04-27T02:45:25.228Z,24.32
2023-04-27T02:46:25.330Z,24.30
2023-04-27T02:47:25.372Z,24.30
2023-04-27T02:48:25.483Z,24.32
2023-04-27T02:49:25.471Z,24.31
2023-04-27T02:50:25.517Z,24.31
2023-04-27T02:51:25.504Z,24.31
2023-04-27T02:52:25.477Z,24.30
2023-04-27T02:53:25.488Z,24.28
2023-04-27T02:54:25.490Z,24.27
2023-04-27T02:55:25.452Z,24.31
2023-04-27T02:56:25.496Z,24.31
2023-04-27T02:57:25.441Z,24.30
2023-04-27T02:58:25.506Z,24.30
2023-04-27T02:59:25.383Z,24.31
2023-04-27T03:00:25.793Z,24.30
2023-04-27T03:01:25.558Z,24.31
2023-04-27T03:02:25.574Z,24.31
2023-04-27T03:03:25.722Z,24.31
2023-04-27T03:04:25.778Z,24.31
2023-04-27T03:05:25.672Z,24.28
2023-04-27T03:06:25.738Z,24.28
2023-04-27T03:07:25.788Z,24.31
2023-04-27T03:08:25.853Z,24.28
2023-04-27T03:09:25.892Z,24.31
2023-04-27T03:10:25.958Z,24.30
2023-04-27T03:11:25.985Z,24.30
2023-04-27T03:12:26.068Z,24.28
2023-04-27T03:13:26.115Z,24.31
2023-04-27T03:14:26.196Z,24.28
2023-04-27T03:15:26.235Z,24.28
2023-04-27T03:16:26.318Z,24.31
2023-04-27T03:17:26.393Z,24.30
2023-04-27T03:18:26.401Z,24.28
2023-04-27T03:19:26.450Z,24.28
2023-04-27T03:20:26.506Z,24.28
2023-04-27T03:21:26.555Z,24.28
2023-04-27T03:22:26.587Z,24.30
2023-04-27T03:23:26.634Z,24.31
2023-04-27T03:24:26.679Z,24.28
2023-04-27T03:25:26.687Z,24.28
2023-04-27T03:26:26.768Z,24.31
2023-04-27T03:27:26.737Z,24.30
2023-04-27T03:28:26.732Z,24.30
2023-04-27T03:29:26.698Z,24.28
2023-04-27T03:30:26.714Z,24.30
2023-04-27T03:31:26.692Z,24.28
2023-04-27T03:32:26.681Z,24.28
2023-04-27T03:33:26.639Z,24.30
2023-04-27T03:34:26.628Z,24.30
2023-04-27T03:35:26.619Z,24.28
2023-04-27T03:36:26.624Z,24.30
2023-04-27T03:37:26.612Z,24.28
2023-04-27T03:38:26.707Z,24.30
2023-04-27T03:39:26.572Z,24.28
2023-04-27T03:40:26.589Z,24.28
2023-04-27T03:41:26.557Z,24.28
2023-04-27T03:42:26.549Z,24.28
2023-04-27T03:43:26.569Z,24.28
2023-04-27T03:44:26.545Z,24.25
2023-04-27T03:45:26.527Z,24.25
2023-04-27T03:46:26.539Z,24.25
2023-04-27T03:47:26.516Z,24.27
2023-04-27T03:48:26.480Z,24.25
2023-04-27T03:49:26.475Z,24.27
2023-04-27T03:50:27.549Z,24.25
2023-04-27T03:51:26.566Z,24.30
2023-04-27T03:52:26.626Z,24.28
2023-04-27T03:53:26.688Z,24.28
2023-04-27T03:54:26.737Z,24.24
2023-04-27T03:55:26.811Z,24.28
2023-04-27T03:56:26.843Z,24.27
2023-04-27T03:57:26.876Z,24.28
2023-04-27T03:58:26.918Z,24.25
2023-04-27T03:59:26.952Z,24.25
2023-04-27T04:00:26.937Z,24.28
2023-04-27T04:01:26.915Z,24.25
2023-04-27T04:02:27.077Z,24.28
2023-04-27T04:03:27.013Z,24.28
2023-04-27T04:04:27.000Z,24.25
2023-04-27T04:05:26.868Z,24.28
2023-04-27T04:06:26.820Z,24.27
2023-04-27T04:07:26.796Z,24.27
2023-04-27T04:08:26.779Z,24.25
2023-04-27T04:09:26.752Z,24.27
2023-04-27T04:10:26.820Z,24.28
2023-04-27T04:11:26.843Z,24.27
2023-04-27T04:12:26.870Z,24.27
2023-04-27T04:13:26.932Z,24.25
2023-04-27T04:14:26.955Z,24.28
2023-04-27T04:15:26.992Z,24.27
2023-04-27T04:16:27.076Z,24.27
2023-04-27T04:17:27.093Z,24.27
2023-04-27T04:18:27.086Z,24.28
2023-04-27T04:19:27.089Z,24.24
2023-04-27T04:20:27.109Z,24.24
2023-04-27T04:21:27.135Z,24.27
2023-04-27T04:22:27.154Z,24.27
2023-04-27T04:23:27.155Z,24.27
2023-04-27T04:24:27.183Z,24.27
2023-04-27T04:25:27.209Z,24.27
2023-04-27T04:26:27.221Z,24.27
2023-04-27T04:27:27.228Z,24.27
2023-04-27T04:28:27.258Z,24.27
2023-04-27T04:29:27.258Z,24.24
2023-04-27T04:30:27.262Z,24.25
2023-04-27T04:31:27.329Z,24.28
2023-04-27T04:32:27.326Z,24.27
2023-04-27T04:33:27.311Z,24.25
2023-04-27T04:34:27.341Z,24.25
2023-04-27T04:35:27.351Z,24.28
2023-04-27T04:36:27.362Z,24.27
2023-04-27T04:37:27.381Z,24.27
2023-04-27T04:38:27.372Z,24.27
2023-04-27T04:39:27.383Z,24.25
2023-04-27T04:40:27.386Z,24.25
2023-04-27T04:41:27.377Z,24.25
2023-04-27T04:42:27.402Z,24.27
2023-04-27T04:43:27.418Z,24.24
2023-04-27T04:44:27.455Z,24.28
2023-04-27T04:45:27.452Z,24.27
2023-04-27T04:46:27.521Z,24.28
2023-04-27T04:47:27.554Z,24.28
2023-04-27T04:48:27.565Z,24.24
2023-04-27T04:49:27.596Z,24.28
2023-04-27T04:50:27.639Z,24.27
2023-04-27T04:51:27.672Z,24.27
2023-04-27T04:52:27.769Z,24.30
2023-04-27T04:53:27.754Z,24.27
2023-04-27T04:54:27.798Z,24.28
2023-04-27T04:55:27.842Z,24.25
2023-04-27T04:56:27.869Z,24.27
2023-04-27T04:57:27.980Z,24.24
2023-04-27T04:58:28.033Z,24.27
2023-04-27T04:59:28.586Z,24.28
2023-04-27T05:00:27.855Z,24.28
2023-04-27T05:01:27.898Z,24.30
2023-04-27T05:02:27.930Z,24.27
2023-04-27T05:03:27.901Z,24.28
2023-04-27T05:04:27.933Z,24.30
2023-04-27T05:05:27.766Z,24.28
2023-04-27T05:06:27.745Z,24.30
2023-04-27T05:07:27.792Z,24.31
2023-04-27T05:08:27.882Z,24.31
2023-04-27T05:09:27.923Z,24.30
2023-04-27T05:10:27.964Z,24.28
2023-04-27T05:11:28.005Z,24.31
2023-04-27T05:12:28.037Z,24.32
2023-04-27T05:13:28.098Z,24.32
2023-04-27T05:14:28.134Z,24.32
2023-04-27T05:15:28.191Z,24.31
2023-04-27T05:16:28.253Z,24.32
2023-04-27T05:17:28.305Z,24.32
2023-04-27T05:18:28.289Z,24.34
2023-04-27T05:19:28.293Z,24.32
2023-04-27T05:20:28.321Z,24.31
2023-04-27T05:21:28.312Z,24.34
2023-04-27T05:22:28.353Z,24.34
2023-04-27T05:23:28.387Z,24.34
2023-04-27T05:24:28.380Z,24.34
2023-04-27T05:25:28.353Z,24.35
2023-04-27T05:26:28.836Z,24.35
2023-04-27T05:27:28.327Z,24.35
2023-04-27T05:28:28.337Z,24.37
2023-04-27T05:29:28.358Z,24.35
2023-04-27T05:30:28.287Z,24.35
2023-04-27T05:31:28.245Z,24.37
2023-04-27T05:32:28.291Z,24.37
2023-04-27T05:33:28.281Z,24.35
2023-04-27T05:34:28.273Z,24.32
2023-04-27T05:35:28.623Z,24.35
2023-04-27T05:36:28.340Z,24.34
2023-04-27T05:37:28.349Z,24.35
2023-04-27T05:38:28.568Z,24.37
2023-04-27T05:39:28.472Z,24.38
2023-04-27T05:40:29.360Z,24.41
2023-04-27T05:41:28.562Z,24.47
2023-04-27T05:42:28.498Z,24.54
2023-04-27T05:43:28.512Z,24.61
2023-04-27T05:44:28.608Z,24.68
2023-04-27T05:45:28.646Z,24.74
2023-04-27T05:46:28.626Z,24.81
2023-04-27T05:47:28.596Z,24.88
2023-04-27T05:48:28.546Z,24.93
2023-04-27T05:49:28.520Z,24.98
2023-04-27T05:50:28.518Z,25.02
2023-04-27T05:51:28.637Z,25.05
2023-04-27T05:52:28.459Z,25.03
2023-04-27T05:53:28.524Z,25.03
2023-04-27T05:54:28.425Z,25.06
2023-04-27T05:55:28.483Z,25.03
2023-04-27T05:56:29.347Z,25.06
2023-04-27T05:57:28.465Z,25.05
2023-04-27T05:58:28.485Z,25.05
2023-04-27T05:59:28.469Z,25.06
2023-04-27T06:00:28.960Z,25.05
2023-04-27T06:01:28.506Z,25.06
2023-04-27T06:02:28.760Z,25.03
2023-04-27T06:03:28.709Z,25.08
2023-04-27T06:04:28.705Z,25.12
2023-04-27T06:05:28.733Z,25.10
2023-04-27T06:06:28.683Z,25.10
2023-04-27T06:07:28.708Z,25.16
2023-04-27T06:08:28.785Z,25.18
2023-04-27T06:09:28.796Z,25.20
2023-04-27T06:10:28.879Z,25.22
2023-04-27T06:11:28.884Z,25.23
2023-04-27T06:12:28.900Z,25.28
2023-04-27T06:13:29.056Z,25.26
2023-04-27T06:14:29.013Z,25.26
2023-04-27T06:15:28.961Z,25.29
2023-04-27T06:16:28.985Z,25.30
2023-04-27T06:17:28.919Z,25.29
2023-04-27T06:18:29.011Z,25.32
2023-04-27T06:19:28.806Z,25.33
2023-04-27T06:20:29.016Z,25.34
2023-04-27T06:21:28.789Z,25.37
2023-04-27T06:22:28.740Z,25.37
2023-04-27T06:23:28.744Z,25.39
2023-04-27T06:24:28.739Z,25.43
2023-04-27T06:25:29.360Z,25.46
2023-04-27T06:26:28.716Z,25.46
2023-04-27T06:27:28.622Z,25.47
2023-04-27T06:28:29.413Z,25.50
2023-04-27T06:29:30.411Z,25.49
2023-04-27T06:30:29.378Z,25.47
2023-04-27T06:31:28.590Z,25.53
2023-04-27T06:32:28.526Z,25.53
2023-04-27T06:33:28.504Z,25.59
2023-04-27T06:34:28.505Z,25.66
2023-04-27T06:35:28.566Z,25.95
2023-04-27T06:36:28.507Z,26.28
2023-04-27T06:37:28.529Z,26.52
2023-04-27T06:38:28.440Z,26.82
2023-04-27T06:39:28.374Z,27.07
2023-04-27T06:40:28.357Z,27.21
2023-04-27T06:41:28.433Z,27.36
2023-04-27T06:42:28.295Z,27.60
2023-04-27T06:43:28.175Z,27.68
2023-04-27T06:44:28.137Z,27.62
2023-04-27T06:45:28.076Z,27.40
2023-04-27T06:46:28.155Z,27.48
2023-04-27T06:47:27.964Z,27.57
2023-04-27T06:48:27.939Z,27.57
2023-04-27T06:49:27.946Z,27.61
2023-04-27T06:50:27.954Z,27.85
2023-04-27T06:51:27.800Z,27.92
2023-04-27T06:52:27.695Z,28.05
2023-04-27T06:53:27.663Z,27.91
2023-04-27T06:54:27.635Z,27.80
2023-04-27T06:55:27.619Z,27.78
2023-04-27T06:56:27.539Z,27.71
2023-04-27T06:57:27.506Z,27.64
2023-04-27T06:58:28.438Z,27.61
2023-04-27T06:59:27.482Z,27.66
2023-04-27T07:00:27.570Z,27.62
2023-04-27T07:01:27.555Z,27.47
2023-04-27T07:02:27.663Z,27.47
2023-04-27T07:03:27.602Z,27.37
2023-04-27T07:04:27.662Z,27.30
2023-04-27T07:05:27.558Z,27.26
2023-04-27T07:06:27.528Z,27.27
2023-04-27T07:07:27.579Z,27.27
2023-04-27T07:08:27.562Z,27.17
2023-04-27T07:09:28.047Z,27.17
2023-04-27T07:10:27.484Z,27.11
2023-04-27T07:11:27.450Z,27.07
2023-04-27T07:12:27.451Z,27.00
2023-04-27T07:13:27.475Z,26.94
2023-04-27T07:14:27.390Z,26.92
2023-04-27T07:15:27.341Z,26.86
2023-04-27T07:16:27.510Z,26.80
2023-04-27T07:17:27.274Z,26.70
2023-04-27T07:18:27.205Z,26.66
2023-04-27T07:19:27.181Z,26.63
2023-04-27T07:20:27.139Z,26.59
2023-04-27T07:21:27.143Z,26.56
2023-04-27T07:22:27.250Z,26.53
2023-04-27T07:23:27.885Z,26.53
2023-04-27T07:24:27.051Z,26.51
2023-04-27T07:25:26.923Z,26.43
2023-04-27T07:26:26.955Z,26.48
2023-04-27T07:27:26.931Z,26.45
2023-04-27T07:28:26.796Z,26.41
2023-04-27T07:29:27.697Z,26.36
2023-04-27T07:30:26.794Z,26.36
2023-04-27T07:31:26.944Z,26.34
2023-04-27T07:32:26.924Z,26.34
2023-04-27T07:33:26.912Z,26.21
2023-04-27T07:34:35.053Z,26.31
2023-04-27T07:35:27.937Z,26.34
2023-04-27T07:36:26.773Z,26.35
2023-04-27T07:37:26.754Z,26.41
2023-04-27T07:38:26.780Z,26.28
2023-04-27T07:39:26.661Z,26.31
2023-04-27T07:40:26.609Z,26.27
2023-04-27T07:41:26.566Z,26.29
2023-04-27T07:42:26.507Z,26.28
2023-04-27T07:43:26.512Z,26.27
2023-04-27T07:44:26.506Z,26.22
2023-04-27T07:45:26.469Z,26.25
2023-04-27T07:46:26.521Z,26.20
2023-04-27T07:47:26.349Z,26.18
2023-04-27T07:48:26.348Z,26.15
2023-04-27T07:49:26.248Z,26.15
2023-04-27T07:50:26.208Z,26.12
2023-04-27T07:51:26.184Z,26.09
2023-04-27T07:52:26.148Z,26.08
2023-04-27T07:53:26.110Z,26.08
2023-04-27T07:54:26.099Z,26.08
2023-04-27T07:55:26.131Z,26.05
2023-04-27T07:56:26.166Z,26.04
2023-04-27T07:57:26.211Z,26.02
2023-04-27T07:58:26.199Z,26.02
2023-04-27T07:59:26.235Z,26.02
2023-04-27T08:00:26.382Z,26.04
2023-04-27T08:01:26.413Z,26.04
2023-04-27T08:02:26.407Z,26.02
2023-04-27T08:03:26.540Z,26.00
2023-04-27T08:04:26.526Z,26.00
2023-04-27T08:05:26.697Z,25.98
2023-04-27T08:06:26.848Z,26.00
2023-04-27T08:07:27.013Z,26.00
2023-04-27T08:08:26.549Z,25.98
2023-04-27T08:09:27.417Z,26.00
2023-04-27T08:10:26.507Z,26.00
2023-04-27T08:11:26.514Z,25.97
2023-04-27T08:12:26.536Z,25.97
2023-04-27T08:13:26.568Z,25.97
2023-04-27T08:14:26.584Z,25.97
2023-04-27T08:15:26.607Z,25.98
2023-04-27T08:16:26.698Z,25.97
2023-04-27T08:17:26.673Z,25.97
2023-04-27T08:18:26.696Z,25.97
2023-04-27T08:19:26.719Z,25.94
2023-04-27T08:20:26.753Z,25.95
2023-04-27T08:21:26.772Z,25.94
2023-04-27T08:22:26.839Z,25.94
2023-04-27T08:23:26.810Z,25.94
2023-04-27T08:24:26.835Z,25.97
2023-04-27T08:25:26.862Z,25.92
2023-04-27T08:26:26.890Z,25.94
2023-04-27T08:27:26.926Z,25.90
2023-04-27T08:28:26.949Z,25.85
2023-04-27T08:29:28.764Z,25.94
2023-04-27T08:30:27.011Z,25.98
2023-04-27T08:31:27.049Z,26.08
2023-04-27T08:32:27.066Z,26.08
2023-04-27T08:33:27.102Z,26.12
2023-04-27T08:34:27.067Z,26.15
2023-04-27T08:35:27.081Z,26.14
2023-04-27T08:36:27.055Z,26.12
2023-04-27T08:37:27.007Z,26.15
2023-04-27T08:38:26.966Z,26.17
2023-04-27T08:39:26.918Z,26.17
2023-04-27T08:40:26.907Z,26.14
2023-04-27T08:41:26.853Z,26.12
2023-04-27T08:42:26.884Z,26.14
2023-04-27T08:43:26.799Z,26.14
2023-04-27T08:44:26.749Z,26.12
2023-04-27T08:45:26.729Z,26.11
2023-04-27T08:46:26.738Z,26.09
2023-04-27T08:47:35.114Z,26.02
2023-04-27T08:48:27.732Z,26.11
2023-04-27T08:49:26.678Z,26.11
2023-04-27T08:50:26.720Z,26.09
2023-04-27T08:51:26.630Z,26.17
2023-04-27T08:52:26.526Z,26.20
2023-04-27T08:53:26.503Z,26.22
2023-04-27T08:54:26.469Z,26.20
2023-04-27T08:55:26.434Z,26.22
2023-04-27T08:56:26.404Z,26.22
2023-04-27T08:57:26.411Z,26.24
2023-04-27T08:58:26.385Z,26.21
2023-04-27T08:59:26.384Z,26.17
2023-04-27T09:00:26.491Z,26.17
2023-04-27T09:01:26.440Z,26.14
2023-04-27T09:02:26.423Z,26.11
2023-04-27T09:03:26.559Z,26.08
2023-04-27T09:04:26.496Z,26.08
2023-04-27T09:05:26.376Z,26.07
2023-04-27T09:06:26.395Z,26.05
2023-04-27T09:07:28.548Z,26.05
2023-04-27T09:08:26.398Z,26.05
2023-04-27T09:09:26.399Z,26.04
2023-04-27T09:10:26.396Z,26.04
2023-04-27T09:11:26.546Z,26.04
2023-04-27T09:12:26.394Z,26.05
2023-04-27T09:13:26.400Z,26.04
2023-04-27T09:14:26.400Z,26.04
2023-04-27T09:15:26.404Z,26.04
2023-04-27T09:16:26.615Z,26.00
2023-04-27T09:17:26.521Z,26.02
2023-04-27T09:18:26.441Z,26.00
2023-04-27T09:19:26.482Z,25.98
2023-04-27T09:20:26.482Z,25.95
2023-04-27T09:21:26.521Z,25.97
2023-04-27T09:22:26.527Z,25.94
2023-04-27T09:23:26.531Z,25.95
2023-04-27T09:24:26.558Z,25.97
2023-04-27T09:25:26.587Z,25.97
2023-04-27T09:26:26.591Z,25.94
2023-04-27T09:27:26.631Z,25.97
2023-04-27T09:28:27.452Z,25.95
2023-04-27T09:29:26.681Z,25.95
2023-04-27T09:30:26.756Z,25.98
2023-04-27T09:31:26.741Z,25.95
2023-04-27T09:32:26.932Z,25.98
2023-04-27T09:33:26.753Z,25.94
2023-04-27T09:34:27.429Z,25.95
2023-04-27T09:35:26.672Z,25.95
2023-04-27T09:36:26.548Z,25.88
2023-04-27T09:37:26.520Z,25.95
2023-04-27T09:38:26.993Z,26.00
2023-04-27T09:39:26.463Z,26.02
2023-04-27T09:40:26.420Z,26.04
2023-04-27T09:41:26.422Z,26.05
2023-04-27T09:42:26.462Z,26.11
2023-04-27T09:43:26.475Z,26.08
2023-04-27T09:44:26.470Z,26.12
2023-04-27T09:45:26.474Z,26.12
2023-04-27T09:46:26.591Z,26.17
2023-04-27T09:47:26.430Z,26.15
2023-04-27T09:48:26.308Z,26.15
2023-04-27T09:49:26.273Z,26.14
2023-04-27T09:50:26.228Z,26.14
2023-04-27T09:51:26.233Z,26.17
2023-04-27T09:52:26.170Z,26.20
2023-04-27T09:53:26.952Z,26.17
2023-04-27T09:54:26.198Z,26.18
2023-04-27T09:55:26.082Z,26.17
2023-04-27T09:56:26.039Z,26.17
2023-04-27T09:57:26.067Z,26.14
2023-04-27T09:58:26.210Z,26.18
2023-04-27T09:59:26.114Z,26.17
2023-04-27T10:00:26.143Z,26.15
2023-04-27T10:01:26.206Z,26.17
2023-04-27T10:02:26.201Z,26.18
2023-04-27T10:03:26.219Z,26.17
2023-04-27T10:04:26.382Z,26.17
2023-04-27T10:05:26.282Z,26.17
2023-04-27T10:06:26.289Z,26.18
2023-04-27T10:07:26.299Z,26.15
2023-04-27T10:08:26.313Z,26.17
2023-04-27T10:09:26.343Z,26.15
2023-04-27T10:10:26.318Z,26.15
2023-04-27T10:11:26.274Z,26.17
2023-04-27T10:12:26.255Z,26.14
2023-04-27T10:13:26.246Z,26.11
2023-04-27T10:14:26.162Z,26.09
2023-04-27T10:15:26.149Z,26.14
2023-04-27T10:16:26.130Z,26.12
2023-04-27T10:17:26.126Z,26.15
2023-04-27T10:18:26.135Z,26.12
2023-04-27T10:19:26.016Z,26.12
2023-04-27T10:20:26.986Z,26.11
2023-04-27T10:21:25.936Z,26.11
2023-04-27T10:22:25.971Z,26.11
2023-04-27T10:23:25.985Z,26.11
2023-04-27T10:24:26.112Z,26.11
2023-04-27T10:25:26.022Z,26.08
2023-04-27T10:26:26.177Z,26.08
2023-04-27T10:27:26.079Z,26.14
2023-04-27T10:28:26.085Z,26.12
2023-04-27T10:29:26.098Z,26.14
2023-04-27T10:30:26.133Z,26.14
2023-04-27T10:31:26.217Z,26.12
2023-04-27T10:32:26.331Z,26.14
2023-04-27T10:33:26.177Z,26.14
2023-04-27T10:34:26.200Z,26.11
2023-04-27T10:35:26.243Z,26.11
2023-04-27T10:36:26.488Z,26.12
2023-04-27T10:37:26.724Z,26.14
2023-04-27T10:38:26.333Z,26.12
2023-04-27T10:39:39.753Z,26.11
2023-04-27T10:40:27.308Z,26.11
2023-04-27T10:41:26.285Z,26.14
2023-04-27T10:42:26.247Z,26.14
2023-04-27T10:43:26.214Z,26.17
2023-04-27T10:44:26.185Z,26.17
2023-04-27T10:45:27.055Z,26.15
2023-04-27T10:46:26.210Z,26.17
2023-04-27T10:47:26.118Z,26.15
2023-04-27T10:48:26.081Z,26.17
2023-04-27T10:49:26.066Z,26.14
2023-04-27T10:50:26.033Z,26.17
2023-04-27T10:51:25.997Z,26.17
2023-04-27T10:52:25.971Z,26.17
2023-04-27T10:53:25.934Z,26.17
2023-04-27T10:54:25.900Z,26.20
2023-04-27T10:55:25.884Z,26.20
2023-04-27T10:56:25.834Z,26.18
2023-04-27T10:57:25.803Z,26.20
2023-04-27T10:58:34.682Z,26.20
2023-04-27T10:59:26.780Z,26.20
2023-04-27T11:00:25.812Z,26.15
2023-04-27T11:01:25.859Z,26.18
2023-04-27T11:02:28.648Z,26.15
2023-04-27T11:03:25.857Z,26.12
2023-04-27T11:04:25.619Z,26.12
2023-04-27T11:05:25.614Z,26.12
2023-04-27T11:06:25.545Z,26.17
2023-04-27T11:07:25.547Z,26.20
2023-04-27T11:08:25.478Z,26.20
2023-04-27T11:09:25.477Z,26.22
2023-04-27T11:10:25.415Z,26.20
2023-04-27T11:11:25.439Z,26.18
2023-04-27T11:12:25.409Z,26.21
2023-04-27T11:13:25.316Z,26.20
2023-04-27T11:14:25.316Z,26.20
2023-04-27T11:15:25.345Z,26.21
2023-04-27T11:16:25.470Z,26.18
2023-04-27T11:17:25.388Z,26.20
2023-04-27T11:18:25.427Z,26.18
2023-04-27T11:19:25.392Z,26.15
2023-04-27T11:20:25.431Z,26.14
2023-04-27T11:21:25.426Z,26.11
2023-04-27T11:22:25.995Z,26.14
2023-04-27T11:23:25.468Z,26.15
2023-04-27T11:24:25.552Z,26.15
2023-04-27T11:25:25.531Z,26.17
2023-04-27T11:26:25.502Z,26.18
2023-04-27T11:27:25.560Z,26.17
2023-04-27T11:28:25.547Z,26.15
2023-04-27T11:29:25.650Z,26.18
2023-04-27T11:30:25.655Z,26.14
2023-04-27T11:31:26.103Z,26.14
2023-04-27T11:32:25.602Z,26.12
2023-04-27T11:33:25.616Z,26.14
2023-04-27T11:34:25.615Z,26.15
2023-04-27T11:35:25.630Z,26.12
2023-04-27T11:36:25.655Z,26.14
2023-04-27T11:37:25.693Z,26.12
2023-04-27T11:38:25.710Z,26.14
2023-04-27T11:39:26.541Z,26.15
2023-04-27T11:40:25.631Z,26.15
2023-04-27T11:41:25.569Z,26.12
2023-04-27T11:42:25.548Z,26.14
2023-04-27T11:43:25.499Z,26.14
2023-04-27T11:44:25.471Z,26.15
2023-04-27T11:45:25.425Z,26.11
2023-04-27T11:46:25.423Z,26.11
2023-04-27T11:47:25.430Z,26.09
2023-04-27T11:48:25.339Z,26.09
2023-04-27T11:49:25.291Z,26.12
2023-04-27T11:50:25.283Z,26.14
2023-04-27T11:51:25.238Z,26.14
2023-04-27T11:52:25.194Z,26.15
2023-04-27T11:53:25.142Z,26.15
2023-04-27T11:54:25.108Z,26.18
2023-04-27T11:55:25.078Z,26.17
2023-04-27T11:56:25.069Z,26.17
2023-04-27T11:57:25.109Z,26.18
2023-04-27T11:58:25.046Z,26.20
2023-04-27T11:59:25.127Z,26.20
2023-04-27T12:00:25.118Z,26.20
2023-04-27T12:01:37.052Z,26.18
2023-04-27T12:02:26.645Z,26.20
2023-04-27T12:03:25.179Z,26.15
2023-04-27T12:04:25.205Z,26.15
2023-04-27T12:05:25.043Z,26.18
2023-04-27T12:06:32.738Z,26.18
2023-04-27T12:07:25.882Z,26.17
2023-04-27T12:08:24.829Z,26.17
2023-04-27T12:09:24.789Z,26.14
2023-04-27T12:10:24.753Z,26.12
2023-04-27T12:11:24.725Z,26.14
2023-04-27T12:12:24.693Z,26.09
2023-04-27T12:13:24.664Z,26.09
2023-04-27T12:14:24.637Z,26.08
2023-04-27T12:15:24.592Z,26.08
2023-04-27T12:16:24.578Z,26.08
2023-04-27T12:17:24.578Z,26.07
2023-04-27T12:18:24.572Z,26.08
2023-04-27T12:19:24.592Z,26.07
2023-04-27T12:20:24.598Z,26.09
2023-04-27T12:21:24.686Z,26.08
2023-04-27T12:22:24.653Z,26.11
2023-04-27T12:23:24.654Z,26.11
2023-04-27T12:24:24.673Z,26.11
2023-04-27T12:25:24.687Z,26.12
2023-04-27T12:26:24.700Z,26.11
2023-04-27T12:27:24.749Z,26.12
2023-04-27T12:28:24.747Z,26.14
2023-04-27T12:29:24.781Z,26.11
2023-04-27T12:30:24.875Z,26.09
2023-04-27T12:31:27.044Z,26.07
2023-04-27T12:32:24.804Z,26.05
2023-04-27T12:33:24.763Z,26.08
2023-04-27T12:34:24.725Z,26.08
2023-04-27T12:35:25.508Z,26.05
2023-04-27T12:36:24.663Z,26.09
2023-04-27T12:37:26.852Z,26.11
2023-04-27T12:38:24.666Z,26.11
2023-04-27T12:39:24.673Z,26.09
2023-04-27T12:40:24.674Z,26.09
2023-04-27T12:41:24.665Z,26.09
2023-04-27T12:42:24.707Z,26.09
2023-04-27T12:43:24.703Z,26.09
2023-04-27T12:44:24.716Z,26.11
2023-04-27T12:45:24.786Z,26.09
2023-04-27T12:46:24.765Z,26.11
2023-04-27T12:48:24.747Z,26.08
2023-04-27T12:49:24.695Z,26.09
2023-04-27T12:50:24.647Z,26.09
2023-04-27T12:51:24.613Z,26.11
2023-04-27T12:52:24.626Z,26.11
2023-04-27T12:53:24.559Z,26.11